Time;durP1;ratioP1;P1;durP2;ratioP2;P2;SDS_P1;SDS_P2;PMS_P1;PMS_P2;Temp;Humidity;BMP_temperature;BMP_pressure;BME280_temperature;BME280_humidity;BME280_pressure;Samples;Min_cycle;Max_cycle;Signal;HPM_P1;HPM_P2
2022/09/23 00:00:41;;;;;;;17.80;16.20;;;9.10;99.90;;;;;;4827298;29;20046;-66
2022/09/23 00:03:07;;;;;;;19.77;17.73;;;9.10;99.90;;;;;;4826925;29;20096;-66
2022/09/23 00:05:33;;;;;;;19.20;17.30;;;9.10;99.90;;;;;;4806232;29;20090;-67
2022/09/23 00:07:59;;;;;;;20.42;18.30;;;9.10;99.90;;;;;;4792202;29;20477;-66
2022/09/23 00:10:29;;;;;;;19.30;17.45;;;9.00;99.90;;;;;;4792384;29;20046;-66
2022/09/23 00:12:56;;;;;;;19.92;18.05;;;9.10;99.90;;;;;;4808955;29;20142;-66
2022/09/23 00:15:24;;;;;;;19.75;18.00;;;9.00;99.90;;;;;;4808707;29;20062;-67
2022/09/23 00:17:50;;;;;;;20.75;18.65;;;9.10;99.90;;;;;;4808959;29;20050;-66
2022/09/23 00:20:16;;;;;;;19.25;17.35;;;9.10;99.90;;;;;;4808736;29;20123;-66
2022/09/23 00:22:42;;;;;;;19.48;17.58;;;9.00;99.90;;;;;;4808785;29;20061;-66
2022/09/23 00:25:09;;;;;;;19.15;17.45;;;9.00;99.90;;;;;;4806951;29;20047;-67
2022/09/23 00:27:36;;;;;;;20.58;18.65;;;9.00;99.90;;;;;;4808511;29;20039;-66
2022/09/23 00:30:04;;;;;;;19.88;17.40;;;9.00;99.90;;;;;;4791985;29;20047;-66
2022/09/23 00:32:29;;;;;;;19.30;17.40;;;9.00;99.90;;;;;;4807060;29;20130;-66
2022/09/23 00:34:55;;;;;;;19.20;17.50;;;9.00;99.90;;;;;;4825036;29;20085;-67
2022/09/23 00:37:21;;;;;;;20.00;18.00;;;9.00;99.90;;;;;;4810506;29;20069;-67
2022/09/23 00:39:47;;;;;;;19.83;17.83;;;9.00;99.90;;;;;;4809779;29;20050;-66
2022/09/23 00:42:19;;;;;;;19.90;17.90;;;9.00;99.90;;;;;;4826083;29;20551;-65
2022/09/23 00:44:56;;;;;;;18.58;16.80;;;9.00;99.90;;;;;;4821121;29;20031;-66
2022/09/23 00:47:29;;;;;;;19.88;17.77;;;9.00;99.90;;;;;;4826082;29;20480;-66
2022/09/23 00:50:07;;;;;;;18.90;17.00;;;9.00;99.90;;;;;;4809048;29;20125;-65
2022/09/23 00:52:33;;;;;;;18.55;16.75;;;9.00;99.90;;;;;;4826354;29;20053;-66
2022/09/23 00:55:01;;;;;;;18.65;16.75;;;8.90;99.90;;;;;;4809362;29;20478;-65
2022/09/23 00:57:28;;;;;;;18.65;16.95;;;9.00;99.90;;;;;;4808403;29;20058;-67
2022/09/23 00:59:54;;;;;;;19.38;17.50;;;9.00;99.90;;;;;;4809553;29;20054;-67
2022/09/23 01:02:22;;;;;;;20.15;18.02;;;9.00;99.90;;;;;;4825847;29;20050;-66
2022/09/23 01:04:49;;;;;;;19.88;17.98;;;8.90;99.90;;;;;;4825776;29;20613;-67
2022/09/23 01:07:16;;;;;;;19.85;17.80;;;8.90;99.90;;;;;;4826014;29;20173;-66
2022/09/23 01:09:42;;;;;;;19.52;17.70;;;8.90;99.90;;;;;;4825606;29;20438;-66
2022/09/23 01:12:41;;;;;;;18.48;16.63;;;8.90;99.90;;;;;;4825904;29;20046;-66
2022/09/23 01:15:36;;;;;;;19.45;17.52;;;8.90;99.90;;;;;;4814990;29;20059;-66
2022/09/23 01:18:20;;;;;;;20.15;18.17;;;8.90;99.90;;;;;;4807912;29;20457;-66
2022/09/23 01:21:09;;;;;;;20.85;18.67;;;8.80;99.90;;;;;;4807489;29;20055;-67
2022/09/23 01:24:13;;;;;;;18.40;16.67;;;8.80;99.90;;;;;;4807197;29;20054;-65
2022/09/23 01:26:51;;;;;;;20.05;18.00;;;8.80;99.90;;;;;;4791441;29;20070;-66
2022/09/23 01:29:32;;;;;;;19.85;18.00;;;8.80;99.90;;;;;;4796247;29;20073;-66
2022/09/23 01:32:01;;;;;;;19.23;17.33;;;8.80;99.90;;;;;;4825458;29;20050;-66
2022/09/23 01:34:48;;;;;;;19.08;17.17;;;8.80;99.90;;;;;;4808859;29;20058;-66
2022/09/23 01:37:32;;;;;;;18.70;17.00;;;8.80;99.90;;;;;;4825469;29;20103;-66
2022/09/23 01:40:09;;;;;;;19.27;17.52;;;8.80;99.90;;;;;;4819827;29;20051;-66
2022/09/23 01:42:38;;;;;;;18.58;16.77;;;8.80;99.90;;;;;;4795603;29;20051;-66
2022/09/23 01:45:32;;;;;;;20.20;18.17;;;8.70;99.90;;;;;;4790974;29;20102;-66
2022/09/23 01:48:22;;;;;;;18.23;16.52;;;8.70;99.90;;;;;;4805935;29;20061;-65
2022/09/23 01:51:17;;;;;;;19.45;17.55;;;8.70;99.90;;;;;;4807161;29;20086;-65
2022/09/23 01:54:17;;;;;;;20.63;18.55;;;8.70;99.90;;;;;;4805306;29;20139;-67
2022/09/23 01:57:12;;;;;;;19.92;17.75;;;8.70;99.90;;;;;;4807118;29;20055;-66
2022/09/23 01:59:47;;;;;;;18.90;17.08;;;8.70;99.90;;;;;;4785513;29;20393;-66
2022/09/23 02:02:34;;;;;;;20.13;18.13;;;8.70;99.90;;;;;;4805828;29;20108;-66
2022/09/23 02:05:06;;;;;;;19.52;17.73;;;8.60;99.90;;;;;;4805349;29;20472;-66
2022/09/23 02:07:36;;;;;;;20.55;18.58;;;8.70;99.90;;;;;;4790591;29;20110;-67
2022/09/23 02:10:43;;;;;;;18.60;16.90;;;8.70;99.90;;;;;;4806408;29;20055;-66
2022/09/23 02:13:15;;;;;;;16.45;14.95;;;8.70;99.90;;;;;;4823984;29;20050;-66
2022/09/23 02:15:47;;;;;;;19.33;17.42;;;8.60;99.90;;;;;;4824943;29;20054;-67
2022/09/23 02:18:19;;;;;;;19.75;17.75;;;8.70;99.90;;;;;;4808507;29;20165;-67
2022/09/23 02:20:46;;;;;;;20.00;18.07;;;8.60;99.90;;;;;;4824614;29;20102;-68
2022/09/23 02:23:28;;;;;;;19.88;18.08;;;8.70;99.90;;;;;;4808119;29;20050;-67
2022/09/23 02:26:07;;;;;;;19.52;17.67;;;8.70;99.90;;;;;;4804849;29;20125;-66
2022/09/23 02:28:56;;;;;;;20.02;18.17;;;8.70;99.90;;;;;;4806121;29;20476;-66
2022/09/23 02:31:31;;;;;;;19.45;17.73;;;8.60;99.90;;;;;;4790553;29;20382;-67
2022/09/23 02:34:37;;;;;;;20.45;18.55;;;8.60;99.90;;;;;;4790143;29;20465;-66
2022/09/23 02:37:08;;;;;;;21.00;19.05;;;8.60;99.90;;;;;;4806100;29;20111;-67
2022/09/23 02:39:54;;;;;;;21.02;18.92;;;8.60;99.90;;;;;;4804775;29;20122;-66
2022/09/23 02:42:25;;;;;;;21.33;19.25;;;8.60;99.90;;;;;;4821752;29;20061;-66
2022/09/23 02:44:51;;;;;;;21.43;19.33;;;8.50;99.90;;;;;;4824561;29;20150;-67
2022/09/23 02:47:23;;;;;;;20.42;18.42;;;8.50;99.90;;;;;;4824162;29;20824;-66
2022/09/23 02:49:49;;;;;;;21.17;18.95;;;8.40;99.90;;;;;;4808138;29;20069;-66
2022/09/23 02:52:16;;;;;;;19.98;18.08;;;8.40;99.90;;;;;;4824141;29;20042;-66
2022/09/23 02:54:42;;;;;;;19.67;17.08;;;8.40;99.90;;;;;;4807472;29;20129;-67
2022/09/23 02:57:08;;;;;;;20.27;18.17;;;8.30;99.90;;;;;;4807769;29;20134;-66
2022/09/23 02:59:34;;;;;;;19.98;17.95;;;8.30;99.90;;;;;;4806121;29;20107;-66
2022/09/23 03:02:33;;;;;;;22.40;20.30;;;8.20;99.90;;;;;;4789757;29;20099;-67
2022/09/23 03:05:30;;;;;;;20.92;18.75;;;8.20;99.90;;;;;;4789377;29;20058;-66
2022/09/23 03:08:28;;;;;;;19.17;17.40;;;8.10;99.90;;;;;;4789185;29;20042;-67
2022/09/23 03:11:10;;;;;;;20.75;18.65;;;8.10;99.90;;;;;;4789903;29;20055;-67
2022/09/23 03:13:49;;;;;;;21.10;19.10;;;8.00;99.90;;;;;;4805263;29;20047;-67
2022/09/23 03:16:55;;;;;;;22.40;20.08;;;8.00;99.90;;;;;;4805993;29;20047;-66
2022/09/23 03:19:42;;;;;;;21.83;19.73;;;8.00;99.90;;;;;;4789546;29;20145;-66
2022/09/23 03:22:16;;;;;;;21.58;19.48;;;8.00;99.90;;;;;;4805777;29;20061;-66
2022/09/23 03:24:44;;;;;;;20.58;18.45;;;7.90;99.90;;;;;;4789320;29;20042;-66
2022/09/23 03:27:17;;;;;;;22.98;20.63;;;7.90;99.90;;;;;;4789865;29;20058;-65
2022/09/23 03:29:46;;;;;;;21.48;19.35;;;7.90;99.90;;;;;;4789578;29;20051;-67
2022/09/23 03:32:18;;;;;;;21.60;19.52;;;7.90;99.90;;;;;;4805635;29;20121;-65
2022/09/23 03:34:47;;;;;;;19.92;18.13;;;7.90;99.90;;;;;;4805401;29;20072;-65
2022/09/23 03:37:25;;;;;;;22.27;20.17;;;7.80;99.90;;;;;;4804119;29;20051;-64
2022/09/23 03:39:56;;;;;;;21.35;19.05;;;7.80;99.90;;;;;;4788587;29;20053;-65
2022/09/23 03:42:24;;;;;;;22.25;20.00;;;7.80;99.90;;;;;;4805560;29;20496;-65
2022/09/23 03:44:58;;;;;;;20.98;18.75;;;7.80;99.90;;;;;;4805538;29;20047;-65
2022/09/23 03:47:26;;;;;;;20.98;18.92;;;7.80;99.90;;;;;;4805414;29;20514;-65
2022/09/23 03:49:52;;;;;;;20.77;18.88;;;7.80;99.90;;;;;;4805222;29;20063;-65
2022/09/23 03:52:22;;;;;;;21.88;19.73;;;7.70;99.90;;;;;;4804068;29;20077;-66
2022/09/23 03:54:50;;;;;;;20.38;18.38;;;7.70;99.90;;;;;;4810662;29;20050;-66
2022/09/23 03:57:16;;;;;;;23.02;19.50;;;7.70;99.90;;;;;;4796392;29;20085;-66
2022/09/23 03:59:42;;;;;;;22.17;19.85;;;7.70;99.90;;;;;;4805792;29;20051;-66
2022/09/23 04:02:08;;;;;;;20.98;18.88;;;7.70;99.90;;;;;;4789459;29;20111;-66
2022/09/23 04:04:59;;;;;;;21.90;19.75;;;7.70;99.90;;;;;;4789628;29;20055;-66
2022/09/23 04:15:13;;;;;;;19.73;17.67;;;7.70;99.90;;;;;;4805171;29;20054;-66
2022/09/23 04:17:39;;;;;;;20.50;18.58;;;7.70;99.90;;;;;;4788851;29;20378;-66
2022/09/23 04:20:05;;;;;;;21.42;19.42;;;7.60;99.90;;;;;;4788970;29;20388;-66
2022/09/23 04:22:32;;;;;;;21.02;18.77;;;7.60;99.90;;;;;;4789206;29;20051;-65
2022/09/23 04:24:58;;;;;;;21.20;19.13;;;7.60;99.90;;;;;;4788923;29;20054;-65
2022/09/23 04:27:23;;;;;;;20.88;18.77;;;7.50;99.90;;;;;;4792574;29;20058;-66
2022/09/23 04:29:58;;;;;;;19.52;17.73;;;7.50;99.90;;;;;;4806850;29;20337;-66
2022/09/23 04:32:24;;;;;;;22.20;20.00;;;7.50;99.90;;;;;;4808455;29;20039;-67
2022/09/23 04:34:49;;;;;;;20.58;18.48;;;7.50;99.90;;;;;;4807531;29;20452;-66
2022/09/23 04:37:15;;;;;;;22.13;19.70;;;7.60;99.90;;;;;;4792245;29;20055;-66
2022/09/23 04:39:42;;;;;;;19.63;17.83;;;7.60;99.90;;;;;;4807151;29;20480;-66
2022/09/23 04:42:07;;;;;;;20.67;18.55;;;7.50;99.90;;;;;;4791782;29;20043;-66
2022/09/23 04:44:33;;;;;;;20.38;17.55;;;7.60;99.90;;;;;;4808288;29;20058;-67
2022/09/23 04:46:59;;;;;;;20.67;18.65;;;7.60;99.90;;;;;;4806972;29;20059;-66
2022/09/23 04:49:25;;;;;;;19.15;17.33;;;7.60;99.90;;;;;;4807838;29;20062;-66
2022/09/23 04:51:50;;;;;;;21.42;19.30;;;7.60;99.90;;;;;;4791902;29;20066;-66
2022/09/23 04:54:16;;;;;;;23.42;19.15;;;7.50;99.90;;;;;;4807441;29;20166;-66
2022/09/23 04:56:42;;;;;;;21.50;19.25;;;7.60;99.90;;;;;;4806976;29;20055;-66
2022/09/23 05:03:08;;;;;;;20.45;18.35;;;7.60;99.90;;;;;;4824158;29;20041;-66
2022/09/23 05:05:35;;;;;;;21.05;18.88;;;7.60;99.90;;;;;;4809737;29;20062;-65
2022/09/23 05:08:58;;;;;;;20.08;18.08;;;7.60;99.90;;;;;;4825100;29;20051;-66
2022/09/23 05:11:50;;;;;;;19.80;17.80;;;7.60;99.90;;;;;;4824890;29;20388;-66
2022/09/23 05:14:15;;;;;;;19.05;17.15;;;7.60;99.90;;;;;;4806523;29;20054;-66
2022/09/23 05:16:41;;;;;;;19.73;17.75;;;7.60;99.90;;;;;;4806244;29;20058;-65
2022/09/23 05:19:06;;;;;;;19.35;17.48;;;7.70;99.90;;;;;;4807464;29;20043;-67
2022/09/23 05:21:32;;;;;;;19.33;17.40;;;7.70;99.90;;;;;;4807688;29;20043;-66
2022/09/23 05:23:59;;;;;;;17.98;16.08;;;7.70;99.90;;;;;;4807104;29;20066;-66
2022/09/23 05:26:30;;;;;;;26.70;17.20;;;7.70;99.90;;;;;;4791240;29;20067;-66
2022/09/23 05:28:57;;;;;;;18.67;16.67;;;7.70;99.90;;;;;;4791029;29;20086;-66
2022/09/23 05:31:26;;;;;;;19.00;17.02;;;7.70;99.90;;;;;;4807728;29;20078;-66
2022/09/23 05:34:42;;;;;;;18.50;16.58;;;7.60;99.90;;;;;;4820963;29;20073;-66
2022/09/23 05:37:36;;;;;;;19.40;17.38;;;7.60;99.90;;;;;;4818167;29;20431;-66
2022/09/23 05:40:01;;;;;;;18.17;16.40;;;7.60;99.90;;;;;;4813366;29;20487;-67
2022/09/23 05:42:27;;;;;;;18.73;16.83;;;7.70;99.90;;;;;;4821653;29;20057;-66
2022/09/23 05:49:00;;;;;;;19.73;17.73;;;7.70;99.90;;;;;;4810482;29;20111;-66
2022/09/23 05:52:17;;;;;;;17.65;15.93;;;7.70;99.90;;;;;;4793976;29;20743;-66
2022/09/23 05:55:07;;;;;;;19.77;16.55;;;7.70;99.90;;;;;;4789749;29;20108;-66
2022/09/23 06:02:27;;;;;;;20.90;17.30;;;7.80;99.90;;;;;;4806729;29;20496;-66
2022/09/23 06:09:23;;;;;;;18.42;16.63;;;7.90;99.90;;;;;;4806071;29;20053;-66
2022/09/23 06:15:57;;;;;;;16.85;15.05;;;8.20;99.90;;;;;;4814877;29;20443;-66
2022/09/23 06:18:47;;;;;;;16.90;15.13;;;8.30;99.90;;;;;;4787233;29;20054;-66
2022/09/23 06:22:04;;;;;;;17.63;15.95;;;8.40;99.90;;;;;;4790226;29;20062;-65
2022/09/23 06:28:39;;;;;;;17.33;15.52;;;8.70;99.90;;;;;;4807401;29;20042;-67
2022/09/23 06:31:32;;;;;;;18.35;14.80;;;8.80;99.90;;;;;;4790379;29;20057;-66
2022/09/23 06:34:48;;;;;;;17.77;15.98;;;8.80;99.90;;;;;;4806004;29;20396;-66
2022/09/23 06:41:40;;;;;;;15.60;14.18;;;9.30;99.90;;;;;;4806727;29;20082;-65
2022/09/23 06:44:05;;;;;;;15.50;13.93;;;9.40;99.90;;;;;;4806430;29;20062;-67
2022/09/23 06:46:31;;;;;;;14.77;13.07;;;9.60;99.90;;;;;;4790057;29;20077;-66
2022/09/23 06:48:56;;;;;;;15.90;14.35;;;9.60;99.90;;;;;;4774423;29;20069;-67
2022/09/23 06:51:23;;;;;;;15.05;13.20;;;9.70;99.90;;;;;;4789756;29;20086;-67
2022/09/23 06:53:48;;;;;;;16.23;13.52;;;9.70;99.90;;;;;;4809067;29;20092;-67
2022/09/23 06:56:16;;;;;;;14.98;13.45;;;9.80;99.90;;;;;;4797213;29;20488;-67
2022/09/23 06:58:41;;;;;;;14.60;13.00;;;9.80;99.90;;;;;;4812305;29;20050;-66
2022/09/23 07:01:09;;;;;;;13.80;12.40;;;10.00;99.90;;;;;;4815258;29;20503;-67
2022/09/23 07:03:35;;;;;;;17.35;13.30;;;10.00;99.90;;;;;;4815060;29;20054;-67
2022/09/23 07:06:02;;;;;;;19.50;14.18;;;10.10;99.90;;;;;;4807764;29;20050;-66
2022/09/23 07:08:29;;;;;;;14.30;13.02;;;10.10;99.90;;;;;;4809440;29;20054;-66
2022/09/23 07:10:58;;;;;;;15.52;13.18;;;10.20;99.90;;;;;;4790033;29;20055;-66
2022/09/23 07:13:24;;;;;;;16.30;12.68;;;10.20;99.90;;;;;;4789631;29;20077;-66
2022/09/23 07:15:55;;;;;;;13.70;12.40;;;10.20;99.90;;;;;;4789350;29;20446;-66
2022/09/23 07:18:24;;;;;;;15.07;13.45;;;10.30;99.90;;;;;;4805405;29;20405;-66
2022/09/23 07:20:50;;;;;;;13.38;11.73;;;10.40;99.90;;;;;;4789405;29;20082;-67
2022/09/23 07:23:16;;;;;;;13.68;12.38;;;10.50;99.90;;;;;;4805102;29;20185;-66
2022/09/23 07:25:43;;;;;;;13.85;12.32;;;10.50;99.90;;;;;;4805556;29;20043;-66
2022/09/23 07:28:09;;;;;;;12.90;11.45;;;10.60;99.90;;;;;;4789375;29;20075;-66
2022/09/23 07:30:39;;;;;;;13.40;12.00;;;10.60;99.90;;;;;;4806057;29;20073;-66
2022/09/23 07:33:05;;;;;;;12.23;11.13;;;10.70;99.90;;;;;;4805760;29;20094;-66
2022/09/23 07:35:32;;;;;;;12.93;11.73;;;10.80;99.90;;;;;;4789745;29;20059;-67
2022/09/23 07:37:58;;;;;;;14.57;11.80;;;10.90;99.90;;;;;;4803795;29;20054;-67
2022/09/23 07:40:24;;;;;;;14.50;13.10;;;10.90;99.90;;;;;;4789687;29;20069;-66
2022/09/23 07:42:50;;;;;;;12.65;11.45;;;11.00;99.90;;;;;;4804876;29;20050;-67
2022/09/23 07:45:15;;;;;;;15.07;12.05;;;11.00;99.90;;;;;;4805368;29;20071;-67
2022/09/23 07:47:41;;;;;;;13.60;11.98;;;11.10;99.90;;;;;;4804890;29;20051;-67
2022/09/23 07:50:10;;;;;;;14.30;12.88;;;11.20;99.90;;;;;;4805490;29;20111;-66
2022/09/23 07:52:36;;;;;;;13.55;12.07;;;11.30;99.90;;;;;;4801787;29;20379;-67
2022/09/23 07:55:03;;;;;;;12.70;11.40;;;11.30;99.90;;;;;;4823517;29;20054;-66
2022/09/23 07:57:29;;;;;;;12.95;11.20;;;11.40;99.90;;;;;;4807154;29;20400;-66
2022/09/23 07:59:54;;;;;;;12.00;10.85;;;11.50;99.90;;;;;;4807923;29;20050;-67
2022/09/23 08:02:20;;;;;;;12.63;11.15;;;11.50;99.90;;;;;;4810614;29;20082;-67
2022/09/23 08:04:45;;;;;;;13.90;11.80;;;11.60;99.90;;;;;;4810744;29;20058;-67
2022/09/23 08:07:12;;;;;;;13.48;12.18;;;11.60;99.90;;;;;;4821958;29;20082;-67
2022/09/23 08:09:40;;;;;;;13.15;11.82;;;11.70;99.90;;;;;;4808639;29;20384;-67
2022/09/23 08:12:12;;;;;;;13.65;11.30;;;11.70;99.90;;;;;;4796302;29;20129;-66
2022/09/23 08:14:37;;;;;;;11.52;10.43;;;11.80;99.90;;;;;;4802052;29;20054;-67
2022/09/23 08:17:04;;;;;;;12.43;11.25;;;11.80;99.90;;;;;;4810296;29;20130;-67
2022/09/23 08:19:34;;;;;;;12.55;11.35;;;11.90;99.90;;;;;;4810684;29;20103;-66
2022/09/23 08:22:00;;;;;;;12.55;11.27;;;12.00;99.90;;;;;;4808691;29;20059;-66
2022/09/23 08:24:25;;;;;;;12.82;10.82;;;12.10;99.90;;;;;;4809958;29;20050;-67
2022/09/23 08:26:53;;;;;;;12.75;11.45;;;12.10;99.90;;;;;;4825465;29;20089;-67
2022/09/23 08:29:21;;;;;;;13.10;11.43;;;12.20;99.90;;;;;;4813566;29;20117;-66
2022/09/23 08:35:28;;;;;;;11.63;10.48;;;12.30;99.90;;;;;;4812976;29;20122;-66
2022/09/23 08:37:54;;;;;;;11.82;10.63;;;12.50;99.90;;;;;;4791846;29;20457;-66
2022/09/23 08:40:19;;;;;;;12.50;10.82;;;12.60;99.90;;;;;;4809769;29;20091;-67
2022/09/23 08:42:45;;;;;;;12.10;10.55;;;12.40;99.90;;;;;;4826135;29;20047;-66
2022/09/23 08:45:20;;;;;;;12.07;10.43;;;12.50;99.90;;;;;;4803928;29;20051;-66
2022/09/23 08:48:07;;;;;;;11.88;10.48;;;12.60;99.90;;;;;;4806603;29;20047;-66
2022/09/23 08:50:44;;;;;;;12.60;11.07;;;12.60;99.90;;;;;;4808412;29;20086;-66
2022/09/23 08:53:32;;;;;;;12.63;10.88;;;12.70;99.90;;;;;;4807367;29;20502;-66
2022/09/23 08:56:01;;;;;;;12.18;10.55;;;12.80;99.90;;;;;;4807927;29;20043;-66
2022/09/23 08:58:48;;;;;;;12.38;11.13;;;12.90;99.90;;;;;;4812582;29;20050;-66
2022/09/23 09:01:32;;;;;;;12.65;10.68;;;13.10;99.90;;;;;;4819181;29;20503;-67
2022/09/23 09:04:01;;;;;;;12.20;10.93;;;13.20;99.90;;;;;;4808961;29;20125;-67
2022/09/23 09:06:41;;;;;;;11.57;10.50;;;13.30;99.90;;;;;;4795635;29;20061;-67
2022/09/23 09:09:18;;;;;;;10.82;9.82;;;13.40;99.90;;;;;;4816731;29;20119;-66
2022/09/23 09:11:47;;;;;;;11.55;9.88;;;13.50;99.90;;;;;;4817135;29;20549;-66
2022/09/23 09:14:46;;;;;;;11.88;10.68;;;13.60;99.90;;;;;;4795562;29;20141;-66
2022/09/23 09:17:28;;;;;;;10.88;9.88;;;13.70;99.90;;;;;;4801626;29;20062;-66
2022/09/23 09:20:22;;;;;;;11.02;9.75;;;13.80;99.90;;;;;;4825374;29;20043;-66
2022/09/23 09:22:52;;;;;;;15.70;10.80;;;13.90;99.90;;;;;;4807969;29;20065;-65
2022/09/23 09:25:23;;;;;;;12.32;9.63;;;14.00;99.90;;;;;;4776178;29;20468;-65
2022/09/23 09:27:49;;;;;;;11.77;10.57;;;14.20;99.90;;;;;;4796657;29;20053;-66
2022/09/23 09:30:15;;;;;;;10.82;9.82;;;14.30;99.90;;;;;;4807231;29;20047;-66
2022/09/23 09:33:05;;;;;;;10.02;8.95;;;14.40;99.90;;;;;;4792999;29;20123;-66
2022/09/23 09:35:56;;;;;;;10.57;9.38;;;14.50;99.90;;;;;;4825607;29;20049;-65
2022/09/23 09:38:22;;;;;;;10.65;9.65;;;14.60;99.90;;;;;;4806613;29;20488;-66
2022/09/23 09:40:47;;;;;;;10.50;9.40;;;14.70;99.90;;;;;;4814890;29;20057;-66
2022/09/23 09:43:22;;;;;;;10.77;9.27;;;14.90;99.90;;;;;;4816423;29;20085;-66
2022/09/23 09:46:07;;;;;;;10.05;8.23;;;15.00;99.90;;;;;;4815419;29;20047;-66
2022/09/23 09:48:52;;;;;;;10.63;8.70;;;15.10;99.90;;;;;;4815955;29;20095;-66
2022/09/23 09:51:23;;;;;;;9.90;9.00;;;15.30;99.90;;;;;;4789835;29;20042;-67
2022/09/23 09:53:52;;;;;;;10.80;9.32;;;15.40;99.90;;;;;;4816105;29;20057;-66
2022/09/23 09:56:30;;;;;;;11.63;8.95;;;15.60;99.90;;;;;;4806765;29;20078;-67
2022/09/23 09:59:21;;;;;;;10.15;9.10;;;15.80;99.90;;;;;;4798825;29;20437;-67
2022/09/23 10:01:47;;;;;;;10.07;9.07;;;15.90;99.90;;;;;;4817304;29;20050;-66
2022/09/23 10:04:23;;;;;;;11.30;8.60;;;15.90;99.90;;;;;;4815417;29;20453;-66
2022/09/23 10:07:12;;;;;;;9.73;8.73;;;16.00;99.90;;;;;;4797897;29;20509;-67
2022/09/23 10:09:39;;;;;;;9.98;9.07;;;16.00;99.90;;;;;;4817728;29;20045;-67
2022/09/23 10:12:14;;;;;;;10.15;9.15;;;16.00;99.90;;;;;;4824966;29;20107;-67
2022/09/23 10:14:45;;;;;;;10.13;8.90;;;16.00;99.90;;;;;;4812607;29;20488;-66
2022/09/23 10:47:20;;;;;;;9.70;8.88;;;15.60;99.90;;;;;;5315195;24;20075;-66
2022/09/23 11:06:42;;;;;;;10.70;9.70;;;15.50;99.90;;;;;;4822451;29;20043;-67
2022/09/23 11:09:39;;;;;;;10.10;9.10;;;15.50;99.90;;;;;;4789377;29;20050;-67
2022/09/23 11:19:37;;;;;;;11.00;9.93;;;15.50;99.90;;;;;;4805382;29;20065;-67
2022/09/23 11:23:20;;;;;;;10.88;9.77;;;15.50;99.90;;;;;;4809757;29;20050;-67
2022/09/23 11:30:20;;;;;;;10.95;9.75;;;15.50;99.90;;;;;;4823759;29;20158;-66
2022/09/23 11:41:42;;;;;;;;;;;;;;;;;;;;;
2022/09/23 11:45:27;;;;;;;10.68;9.57;;;15.60;99.90;;;;;;4699449;30;20132;-66
2022/09/23 11:56:25;;;;;;;11.63;9.18;;;15.60;99.90;;;;;;4734515;30;20043;-66
2022/09/23 12:14:57;;;;;;;10.82;9.75;;;15.70;99.90;;;;;;4746640;29;20062;-66
2022/09/23 12:17:53;;;;;;;12.52;9.88;;;15.90;99.90;;;;;;4817977;29;20444;-66
2022/09/23 12:20:47;;;;;;;11.77;10.20;;;15.90;99.90;;;;;;4818773;29;20388;-66
2022/09/23 12:23:30;;;;;;;10.90;9.80;;;16.00;99.90;;;;;;4797717;29;20203;-66
2022/09/23 12:26:03;;;;;;;9.63;8.65;;;16.00;99.90;;;;;;4814599;29;20047;-67
2022/09/23 12:28:43;;;;;;;10.68;9.68;;;16.00;99.90;;;;;;4799698;29;20395;-66
2022/09/23 12:31:16;;;;;;;10.95;9.95;;;16.00;99.90;;;;;;4814450;29;20042;-66
2022/09/23 12:33:53;;;;;;;11.10;9.60;;;16.00;99.90;;;;;;4816773;29;21476;-66
2022/09/23 12:36:34;;;;;;;10.82;9.73;;;15.90;99.90;;;;;;4816873;29;20042;-66
2022/09/23 12:39:14;;;;;;;10.77;9.27;;;15.90;99.90;;;;;;4817397;29;20058;-66
2022/09/23 12:41:55;;;;;;;10.07;9.05;;;15.90;99.90;;;;;;4818074;29;20050;-66
2022/09/23 12:44:43;;;;;;;11.57;10.35;;;15.90;99.90;;;;;;4794680;29;20098;-66
2022/09/23 12:47:38;;;;;;;13.30;11.05;;;15.90;99.90;;;;;;4814664;29;20050;-66
2022/09/23 12:50:42;;;;;;;11.85;10.55;;;15.90;99.90;;;;;;4792496;29;20062;-66
2022/09/23 12:53:32;;;;;;;11.90;10.45;;;15.90;99.90;;;;;;4808799;29;20047;-66
2022/09/23 12:56:14;;;;;;;11.50;10.32;;;15.90;99.90;;;;;;4817898;29;20043;-67
2022/09/23 12:58:42;;;;;;;12.27;10.43;;;15.90;99.90;;;;;;4813238;29;20046;-67
2022/09/23 13:01:14;;;;;;;12.05;10.85;;;15.90;99.90;;;;;;4816923;29;20123;-67
2022/09/23 13:06:41;;;;;;;12.20;10.98;;;15.90;99.90;;;;;;4800367;29;20047;-66
2022/09/23 13:09:21;;;;;;;11.73;10.73;;;15.90;99.90;;;;;;4815081;29;20417;-67
2022/09/23 13:11:47;;;;;;;13.52;11.20;;;15.90;99.90;;;;;;4817460;29;20042;-66
2022/09/23 13:14:18;;;;;;;14.30;11.32;;;15.90;99.90;;;;;;4816332;29;20035;-66
2022/09/23 13:16:45;;;;;;;13.32;10.85;;;16.00;99.90;;;;;;4815612;29;20043;-66
2022/09/23 13:19:26;;;;;;;12.32;10.52;;;16.00;99.90;;;;;;4800222;29;20039;-67
2022/09/23 13:22:09;;;;;;;12.35;11.05;;;16.10;99.90;;;;;;4795883;29;20058;-66
2022/09/23 13:24:53;;;;;;;12.35;11.18;;;16.10;99.90;;;;;;4800932;29;20058;-66
2022/09/23 13:27:28;;;;;;;12.48;11.13;;;16.10;99.90;;;;;;4807513;29;20058;-66
2022/09/23 13:30:15;;;;;;;12.70;11.40;;;16.10;99.90;;;;;;4816086;29;20492;-67
2022/09/23 13:32:47;;;;;;;12.45;11.15;;;16.10;99.90;;;;;;4806588;29;20404;-66
2022/09/23 13:35:23;;;;;;;11.73;10.45;;;16.10;99.90;;;;;;4812180;29;20121;-66
2022/09/23 13:37:49;;;;;;;13.55;12.05;;;16.20;99.90;;;;;;4797068;29;20054;-67
2022/09/23 13:40:17;;;;;;;12.73;11.43;;;16.20;99.90;;;;;;4818693;29;20086;-67
2022/09/23 13:42:46;;;;;;;12.07;10.77;;;16.20;99.90;;;;;;4797743;29;20038;-66
2022/09/23 13:45:38;;;;;;;12.20;10.90;;;16.20;99.90;;;;;;4810151;29;20092;-66
2022/09/23 13:48:15;;;;;;;12.50;11.30;;;16.20;99.90;;;;;;4795593;29;20046;-66
2022/09/23 13:50:52;;;;;;;12.82;11.27;;;16.20;99.90;;;;;;4797415;29;20066;-66
2022/09/23 13:53:31;;;;;;;13.05;11.75;;;16.20;99.90;;;;;;4789330;29;20158;-66
2022/09/23 13:56:05;;;;;;;11.77;10.68;;;16.20;99.90;;;;;;4806431;29;20062;-66
2022/09/23 13:58:34;;;;;;;12.85;11.02;;;16.10;99.90;;;;;;4813154;29;20046;-66
2022/09/23 14:01:00;;;;;;;30.02;27.20;;;16.20;99.90;;;;;;4812595;29;20043;-66
2022/09/23 14:03:35;;;;;;;30.13;27.48;;;16.10;99.90;;;;;;4819811;29;20038;-66
2022/09/23 14:06:06;;;;;;;19.73;17.80;;;16.20;99.90;;;;;;4823334;29;20050;-66
2022/09/23 14:08:32;;;;;;;22.85;20.73;;;16.20;99.90;;;;;;4818279;29;20062;-66
2022/09/23 14:11:02;;;;;;;16.92;15.23;;;16.20;99.90;;;;;;4805040;29;20058;-66
2022/09/23 14:13:42;;;;;;;15.43;13.95;;;16.20;99.90;;;;;;4799564;29;20038;-66
2022/09/23 14:16:13;;;;;;;17.33;15.63;;;16.20;99.90;;;;;;4799204;29;20047;-66
2022/09/23 14:18:45;;;;;;;18.00;16.00;;;16.20;99.90;;;;;;4795361;29;20126;-66
2022/09/23 14:21:33;;;;;;;14.80;13.40;;;16.20;99.90;;;;;;4824100;29;20065;-66
2022/09/23 14:24:20;;;;;;;16.92;15.27;;;16.20;99.90;;;;;;4808144;29;20499;-66
2022/09/23 14:26:50;;;;;;;15.23;13.57;;;16.20;99.90;;;;;;4824826;29;20057;-67
2022/09/23 14:29:23;;;;;;;13.73;12.32;;;16.20;99.90;;;;;;4802566;29;20080;-66
2022/09/23 14:32:02;;;;;;;14.35;11.00;;;16.20;99.90;;;;;;4812539;29;20046;-66
2022/09/23 14:35:05;;;;;;;12.25;11.07;;;16.20;99.90;;;;;;4807036;29;20046;-67
2022/09/23 14:40:34;;;;;;;11.38;10.27;;;16.10;99.90;;;;;;4787262;29;19928;-66
2022/09/23 14:43:22;;;;;;;12.70;11.25;;;16.10;99.90;;;;;;4804026;29;20082;-66
2022/09/23 14:45:55;;;;;;;12.48;11.27;;;16.10;99.90;;;;;;4805412;29;20054;-67
2022/09/23 14:48:31;;;;;;;12.60;11.30;;;16.10;99.90;;;;;;4789411;29;20133;-66
2022/09/23 14:50:59;;;;;;;15.88;10.98;;;16.10;99.90;;;;;;4810016;29;20042;-66
2022/09/23 14:53:39;;;;;;;11.85;10.55;;;16.10;99.90;;;;;;4818291;29;20091;-66
2022/09/23 14:56:04;;;;;;;12.45;11.15;;;16.10;99.90;;;;;;4806373;29;20089;-66
2022/09/23 14:58:41;;;;;;;12.35;10.85;;;16.00;99.90;;;;;;4793590;29;20078;-66
2022/09/23 15:01:22;;;;;;;12.40;11.18;;;16.00;99.90;;;;;;4818151;29;20047;-66
2022/09/23 15:11:40;;;;;;;16.70;14.48;;;15.70;99.90;;;;;;4822808;29;20033;-67
2022/09/23 15:14:59;;;;;;;13.38;12.07;;;15.60;99.90;;;;;;4807495;29;20085;-67
2022/09/23 15:17:33;;;;;;;13.98;12.55;;;15.60;99.90;;;;;;4793132;29;20046;-67
2022/09/23 15:20:03;;;;;;;15.15;13.65;;;15.50;99.90;;;;;;4815870;29;20123;-67
2022/09/23 15:25:52;;;;;;;;;;;15.40;99.90;;;;;;4741830;29;20099;-66
2022/09/23 15:29:09;;;;;;;12.63;11.43;;;15.40;99.90;;;;;;4812666;29;19921;-66
2022/09/23 15:31:36;;;;;;;13.15;11.85;;;15.40;99.90;;;;;;4811706;29;20047;-67
2022/09/23 15:34:02;;;;;;;12.18;10.88;;;15.30;99.90;;;;;;4809491;29;20041;-67
2022/09/23 15:41:18;;;;;;;15.68;12.70;;;15.30;99.90;;;;;;4809792;29;20432;-66
2022/09/23 16:00:09;;;;;;;14.85;12.35;;;15.30;99.90;;;;;;4815555;29;20049;-66
2022/09/23 16:13:23;;;;;;;10.55;9.20;;;15.10;99.90;;;;;;5042905;24;20062;-67
2022/09/23 16:23:13;;;;;;;14.70;10.80;;;14.80;99.90;;;;;;4809434;29;20045;-66
2022/09/23 16:54:13;;;;;;;11.63;10.27;;;14.70;99.90;;;;;;4825279;29;20133;-67